createdAt,value
2018-06-18T00:02:19.374Z,99.90
2018-06-18T00:04:47.664Z,99.90
2018-06-18T00:07:15.908Z,99.90
2018-06-18T00:09:44.166Z,99.90
2018-06-18T00:12:12.409Z,99.90
2018-06-18T00:14:40.585Z,99.90
2018-06-18T00:19:57.830Z,99.90
2018-06-18T00:22:26.050Z,99.90
2018-06-18T00:24:54.299Z,99.90
2018-06-18T00:27:22.554Z,99.90
2018-06-18T00:29:50.802Z,99.90
2018-06-18T00:32:19.086Z,99.90
2018-06-18T00:34:47.293Z,99.90
2018-06-18T00:37:15.458Z,99.90
2018-06-18T00:39:43.716Z,99.90
2018-06-18T00:42:11.930Z,99.90
2018-06-18T00:44:40.263Z,99.90
2018-06-18T00:47:08.420Z,99.90
2018-06-18T00:49:36.650Z,99.90
2018-06-18T00:52:04.870Z,99.90
2018-06-18T00:54:33.140Z,99.90
2018-06-18T00:57:01.380Z,99.90
2018-06-18T00:59:29.718Z,99.90
2018-06-18T01:01:57.922Z,99.90
2018-06-18T01:04:26.145Z,99.90
2018-06-18T01:06:54.376Z,99.90
2018-06-18T01:09:22.643Z,99.90
2018-06-18T01:11:50.884Z,99.90
2018-06-18T01:14:20.379Z,99.90
2018-06-18T01:16:48.538Z,99.90
2018-06-18T01:19:16.786Z,99.90
2018-06-18T01:21:45.036Z,99.90
2018-06-18T01:24:14.958Z,99.90
2018-06-18T01:26:43.256Z,99.90
2018-06-18T01:29:11.518Z,99.90
2018-06-18T01:31:39.713Z,99.90
2018-06-18T01:34:10.278Z,99.90
2018-06-18T01:36:38.631Z,99.90
2018-06-18T01:39:08.031Z,99.90
2018-06-18T01:41:36.357Z,99.90
2018-06-18T01:44:04.614Z,99.90
2018-06-18T01:46:32.880Z,99.90
2018-06-18T01:49:01.050Z,99.90
2018-06-18T01:51:29.248Z,99.90
2018-06-18T01:53:57.434Z,99.90
2018-06-18T01:56:25.625Z,99.90
2018-06-18T01:58:53.799Z,99.90
2018-06-18T02:01:22.095Z,99.90
2018-06-18T02:03:50.306Z,99.90
2018-06-18T02:06:18.689Z,99.90
2018-06-18T02:08:46.899Z,99.90
2018-06-18T02:11:15.166Z,99.90
2018-06-18T02:13:43.422Z,99.90
2018-06-18T02:16:11.702Z,99.90
2018-06-18T02:18:39.932Z,99.90
2018-06-18T02:21:08.241Z,99.90
2018-06-18T02:26:04.315Z,99.90
2018-06-18T02:28:37.702Z,99.90
2018-06-18T02:31:11.178Z,99.90
2018-06-18T02:33:44.635Z,99.90
2018-06-18T02:36:17.997Z,99.90
2018-06-18T02:38:53.046Z,99.90
2018-06-18T02:41:21.242Z,99.90
2018-06-18T02:43:49.497Z,99.90
2018-06-18T02:46:17.695Z,99.90
2018-06-18T02:48:45.867Z,99.90
2018-06-18T02:51:14.126Z,99.90
2018-06-18T02:53:42.399Z,99.90
2018-06-18T02:56:10.710Z,99.90
2018-06-18T02:58:38.967Z,99.90
2018-06-18T03:01:07.285Z,99.90
2018-06-18T03:03:35.495Z,99.90
2018-06-18T03:06:03.722Z,99.90
2018-06-18T03:08:31.954Z,99.90
2018-06-18T03:11:00.171Z,99.90
2018-06-18T03:13:28.419Z,99.90
2018-06-18T03:15:56.638Z,99.90
2018-06-18T03:18:30.076Z,99.90
2018-06-18T03:21:03.663Z,99.90
2018-06-18T03:23:37.018Z,99.90
2018-06-18T03:26:10.516Z,99.90
2018-06-18T03:28:43.930Z,99.90
2018-06-18T03:31:12.168Z,99.90
2018-06-18T03:36:31.386Z,99.90
2018-06-18T03:38:59.559Z,99.90
2018-06-18T03:41:27.967Z,99.90
2018-06-18T03:43:58.331Z,99.90
2018-06-18T03:46:26.554Z,99.90
2018-06-18T03:48:54.852Z,99.90
2018-06-18T03:51:23.883Z,99.90
2018-06-18T03:53:52.212Z,99.90
2018-06-18T03:56:20.576Z,99.90
2018-06-18T03:58:48.947Z,99.90
2018-06-18T04:01:27.970Z,99.90
2018-06-18T04:04:02.914Z,99.90
2018-06-18T04:06:36.461Z,99.90
2018-06-18T04:09:11.776Z,99.90
2018-06-18T04:11:45.131Z,99.90
2018-06-18T04:14:13.414Z,99.90
2018-06-18T04:16:41.718Z,99.90
2018-06-18T04:19:10.031Z,99.90
2018-06-18T04:21:38.332Z,99.90
2018-06-18T04:24:06.586Z,99.90
2018-06-18T04:26:34.888Z,99.90
2018-06-18T04:29:03.417Z,99.90
2018-06-18T04:31:31.766Z,99.90
2018-06-18T04:34:03.252Z,99.90
2018-06-18T04:36:31.565Z,99.90
2018-06-18T04:38:59.930Z,99.90
2018-06-18T04:41:28.198Z,99.90
2018-06-18T04:44:01.622Z,99.90
2018-06-18T04:47:32.857Z,99.90
2018-06-18T04:50:06.376Z,99.90
2018-06-18T04:52:34.702Z,99.90
2018-06-18T04:55:03.019Z,99.90
2018-06-18T04:57:31.212Z,99.90
2018-06-18T05:00:04.883Z,99.90
2018-06-18T05:02:33.147Z,99.90
2018-06-18T05:05:01.424Z,99.90
2018-06-18T05:07:29.699Z,99.90
2018-06-18T05:10:06.515Z,99.90
2018-06-18T05:12:34.942Z,99.90
2018-06-18T05:15:03.414Z,99.90
2018-06-18T05:19:59.443Z,99.90
2018-06-18T05:22:27.739Z,99.90
2018-06-18T05:24:55.998Z,99.90
2018-06-18T05:27:25.708Z,99.90
2018-06-18T05:29:54.068Z,99.90
2018-06-18T05:32:22.468Z,99.90
2018-06-18T05:34:50.781Z,99.90
2018-06-18T05:37:20.908Z,99.90
2018-06-18T05:39:49.174Z,99.90
2018-06-18T05:42:17.422Z,99.90
2018-06-18T05:44:45.689Z,99.90
2018-06-18T05:47:14.019Z,99.90
2018-06-18T05:49:42.234Z,99.90
2018-06-18T05:52:10.455Z,99.90
2018-06-18T05:54:38.693Z,99.90
2018-06-18T05:57:07.052Z,99.90
2018-06-18T05:59:35.384Z,99.90
2018-06-18T06:02:03.627Z,99.90
2018-06-18T06:04:31.925Z,99.90
2018-06-18T06:07:00.228Z,99.90
2018-06-18T06:09:28.514Z,99.90
2018-06-18T06:11:56.754Z,99.90
2018-06-18T06:14:25.103Z,99.90
2018-06-18T06:16:53.555Z,99.90
2018-06-18T06:19:21.774Z,99.90
2018-06-18T06:21:57.604Z,99.90
2018-06-18T06:24:25.917Z,99.90
2018-06-18T06:26:54.217Z,99.90
2018-06-18T06:29:22.489Z,99.90
2018-06-18T06:31:50.792Z,99.90
2018-06-18T06:34:19.121Z,99.90
2018-06-18T06:36:47.514Z,99.90
2018-06-18T06:39:15.798Z,99.90
2018-06-18T06:41:46.135Z,99.90
2018-06-18T06:44:14.471Z,99.90
2018-06-18T06:46:42.778Z,99.90
2018-06-18T06:51:38.827Z,99.90
2018-06-18T06:54:07.245Z,99.90
2018-06-18T06:56:35.494Z,99.90
2018-06-18T06:59:03.778Z,99.90
2018-06-18T07:01:31.953Z,99.90
2018-06-18T07:04:00.250Z,99.90
2018-06-18T07:06:28.483Z,99.90
2018-06-18T07:11:24.517Z,99.90
2018-06-18T07:13:52.731Z,99.90
2018-06-18T07:16:20.981Z,99.90
2018-06-18T07:18:49.330Z,99.90
2018-06-18T07:21:17.602Z,99.90
2018-06-18T07:23:45.863Z,99.90
2018-06-18T07:26:14.074Z,99.90
2018-06-18T07:28:42.394Z,99.90
2018-06-18T07:31:10.653Z,99.90
2018-06-18T07:33:39.018Z,99.90
2018-06-18T07:36:07.250Z,99.90
2018-06-18T07:38:35.519Z,99.90
2018-06-18T07:41:03.812Z,99.90
2018-06-18T07:43:32.068Z,99.90
2018-06-18T07:46:00.305Z,99.90
2018-06-18T07:48:28.519Z,99.90
2018-06-18T07:50:56.674Z,99.90
2018-06-18T07:53:24.855Z,99.90
2018-06-18T07:55:53.151Z,99.90
2018-06-18T07:58:21.382Z,99.90
2018-06-18T08:00:49.705Z,99.90
2018-06-18T08:03:18.066Z,99.90
2018-06-18T08:05:46.250Z,99.90
2018-06-18T08:08:20.830Z,99.90
2018-06-18T08:10:49.052Z,99.90
2018-06-18T08:13:17.291Z,99.90
2018-06-18T08:15:45.538Z,99.90
2018-06-18T08:18:13.842Z,99.90
2018-06-18T08:20:42.102Z,99.90
2018-06-18T08:23:10.346Z,99.90
2018-06-18T08:25:38.582Z,99.30
2018-06-18T08:28:06.824Z,99.90
2018-06-18T08:30:35.198Z,99.90
2018-06-18T08:33:03.452Z,99.90
2018-06-18T08:35:31.761Z,99.90
2018-06-18T08:37:59.987Z,99.90
2018-06-18T08:40:28.211Z,98.80
2018-06-18T08:42:56.385Z,96.90
2018-06-18T08:45:24.662Z,97.10
2018-06-18T08:47:52.850Z,97.80
2018-06-18T08:50:26.274Z,95.60
2018-06-18T08:52:59.713Z,94.70
2018-06-18T08:55:33.432Z,98.10
2018-06-18T08:58:06.832Z,98.20
2018-06-18T09:00:40.246Z,93.60
2018-06-18T09:03:27.139Z,93.70
2018-06-18T09:05:59.553Z,91.30
2018-06-18T09:08:31.939Z,91.60
2018-06-18T09:11:00.435Z,90.90
2018-06-18T09:13:28.746Z,87.00
2018-06-18T09:15:56.981Z,89.00
2018-06-18T09:18:25.174Z,89.20
2018-06-18T09:20:53.443Z,88.50
2018-06-18T09:23:21.681Z,87.10
2018-06-18T09:25:55.333Z,86.10
2018-06-18T09:28:23.518Z,86.80
2018-06-18T09:30:51.813Z,88.10
2018-06-18T09:33:20.063Z,89.60
2018-06-18T09:35:48.422Z,85.80
2018-06-18T09:38:16.602Z,83.60
2018-06-18T09:40:44.951Z,81.80
2018-06-18T09:43:13.169Z,89.80
2018-06-18T09:45:41.489Z,90.30
2018-06-18T09:48:09.842Z,82.90
2018-06-18T09:50:43.229Z,85.50
2018-06-18T09:53:16.620Z,83.40
2018-06-18T09:55:49.898Z,78.10
2018-06-18T09:58:23.285Z,78.90
2018-06-18T10:01:04.409Z,80.40
2018-06-18T10:06:00.690Z,78.80
2018-06-18T10:08:30.231Z,74.90
2018-06-18T10:10:58.343Z,78.40
2018-06-18T10:13:26.573Z,76.40
2018-06-18T10:15:54.895Z,76.00
2018-06-18T10:18:23.166Z,74.90
2018-06-18T10:20:51.979Z,80.80
2018-06-18T10:23:20.222Z,75.80
2018-06-18T10:25:48.504Z,76.30
2018-06-18T10:28:16.779Z,75.50
2018-06-18T10:30:44.971Z,71.80
2018-06-18T10:33:18.464Z,72.60
2018-06-18T10:35:52.029Z,72.30
2018-06-18T10:38:25.547Z,75.00
2018-06-18T10:40:59.028Z,73.60
2018-06-18T10:43:32.097Z,70.20
2018-06-18T10:46:00.387Z,73.20
2018-06-18T10:48:28.706Z,72.50
2018-06-18T10:50:56.999Z,72.70
2018-06-18T10:53:25.443Z,72.50
2018-06-18T10:55:54.029Z,71.70
2018-06-18T10:58:22.278Z,71.30
2018-06-18T11:00:52.046Z,70.90
2018-06-18T11:03:20.264Z,76.90
2018-06-18T11:05:53.712Z,72.20
2018-06-18T11:08:21.966Z,72.20
2018-06-18T11:10:50.161Z,75.30
2018-06-18T11:13:18.369Z,72.90
2018-06-18T11:15:46.602Z,75.70
2018-06-18T11:18:20.120Z,70.30
2018-06-18T11:20:53.688Z,66.90
2018-06-18T11:26:00.425Z,68.40
2018-06-18T11:28:28.797Z,68.80
2018-06-18T11:30:57.019Z,66.10
2018-06-18T11:33:25.221Z,68.60
2018-06-18T11:35:53.551Z,68.30
2018-06-18T11:38:21.682Z,66.60
2018-06-18T11:40:49.942Z,66.50
2018-06-18T11:43:18.225Z,66.20
2018-06-18T11:48:16.666Z,65.60
2018-06-18T11:50:45.093Z,65.90
2018-06-18T11:53:13.285Z,66.30
2018-06-18T11:55:41.535Z,66.90
2018-06-18T11:58:09.711Z,67.00
2018-06-18T12:00:43.120Z,68.90
2018-06-18T12:03:16.604Z,67.70
2018-06-18T12:05:50.100Z,67.70
2018-06-18T12:08:31.453Z,69.20
2018-06-18T12:10:59.706Z,68.30
2018-06-18T12:13:28.103Z,67.70
2018-06-18T12:15:56.411Z,68.70
2018-06-18T12:18:25.767Z,67.90
2018-06-18T12:20:55.086Z,68.80
2018-06-18T12:23:23.347Z,68.80
2018-06-18T12:25:51.722Z,70.60
2018-06-18T12:28:20.205Z,71.10
2018-06-18T12:30:48.612Z,71.30
2018-06-18T12:33:16.894Z,70.80
2018-06-18T12:35:45.203Z,71.30
2018-06-18T12:38:13.445Z,71.80
2018-06-18T12:40:41.673Z,71.30
2018-06-18T12:43:10.128Z,71.20
2018-06-18T12:51:51.523Z,71.70
2018-06-18T12:55:24.698Z,72.50
2018-06-18T12:57:52.937Z,71.70
2018-06-18T13:00:21.109Z,72.20
2018-06-18T13:02:50.942Z,72.40
2018-06-18T13:05:19.214Z,72.20
2018-06-18T13:07:47.470Z,72.60
2018-06-18T13:10:15.743Z,73.70
2018-06-18T13:12:43.983Z,73.10
2018-06-18T13:15:12.189Z,73.50
2018-06-18T13:17:40.447Z,73.70
2018-06-18T13:20:08.694Z,74.80
2018-06-18T13:22:37.057Z,73.60
2018-06-18T13:25:05.250Z,73.00
2018-06-18T13:27:38.602Z,73.80
2018-06-18T13:30:06.834Z,73.50
2018-06-18T13:32:35.081Z,74.10
2018-06-18T13:35:03.243Z,73.30
2018-06-18T13:37:36.778Z,74.50
2018-06-18T13:40:10.205Z,73.90
2018-06-18T13:45:16.619Z,73.90
2018-06-18T13:47:50.056Z,74.10
2018-06-18T13:50:18.293Z,74.50
2018-06-18T13:52:46.599Z,74.60
2018-06-18T13:55:14.755Z,74.20
2018-06-18T13:57:43.017Z,73.50
2018-06-18T14:00:11.410Z,73.00
2018-06-18T14:02:39.708Z,74.80
2018-06-18T14:05:07.945Z,74.00
2018-06-18T14:07:36.190Z,74.10
2018-06-18T14:10:04.453Z,74.50
2018-06-18T14:12:32.736Z,74.80
2018-06-18T14:15:00.938Z,73.80
2018-06-18T14:17:29.178Z,73.80
2018-06-18T14:20:02.778Z,74.30
2018-06-18T14:22:31.001Z,74.80
2018-06-18T14:24:59.250Z,75.60
2018-06-18T14:27:27.473Z,75.40
2018-06-18T14:30:00.814Z,74.50
2018-06-18T14:32:34.218Z,74.50
2018-06-18T14:35:07.683Z,74.80
2018-06-18T14:37:41.067Z,74.90
2018-06-18T14:40:11.387Z,75.00
2018-06-18T14:42:39.623Z,75.00
2018-06-18T14:45:07.838Z,73.30
2018-06-18T14:47:36.081Z,74.30
2018-06-18T14:52:31.939Z,74.80
2018-06-18T14:55:00.175Z,74.20
2018-06-18T14:57:28.361Z,74.60
2018-06-18T14:59:58.735Z,75.40
2018-06-18T15:02:26.913Z,75.00
2018-06-18T15:04:55.207Z,74.30
2018-06-18T15:07:23.406Z,75.00
2018-06-18T15:09:51.722Z,74.20
2018-06-18T15:12:20.959Z,74.60
2018-06-18T15:14:54.169Z,74.50
2018-06-18T15:17:22.385Z,75.10
2018-06-18T15:19:50.644Z,73.90
2018-06-18T15:22:18.947Z,73.80
2018-06-18T15:24:50.788Z,74.20
2018-06-18T15:27:19.434Z,73.60
2018-06-18T15:29:47.751Z,74.70
2018-06-18T15:32:16.140Z,75.20
2018-06-18T15:34:44.362Z,74.60
2018-06-18T15:37:12.537Z,74.20
2018-06-18T15:39:41.150Z,75.50
2018-06-18T15:42:09.329Z,75.60
2018-06-18T15:44:38.163Z,75.40
2018-06-18T15:47:06.378Z,75.20
2018-06-18T15:49:34.584Z,75.10
2018-06-18T15:52:02.796Z,75.50
2018-06-18T15:54:31.006Z,74.80
2018-06-18T15:56:59.326Z,74.10
2018-06-18T15:59:27.394Z,75.40
2018-06-18T16:01:55.608Z,75.70
2018-06-18T16:04:23.778Z,76.50
2018-06-18T16:06:51.995Z,76.80
2018-06-18T16:09:20.215Z,76.60
2018-06-18T16:11:48.389Z,77.50
2018-06-18T16:14:16.678Z,78.30
2018-06-18T16:16:44.910Z,76.30
2018-06-18T16:19:13.094Z,75.70
2018-06-18T16:21:41.343Z,75.00
2018-06-18T16:24:09.516Z,74.70
2018-06-18T16:26:37.745Z,74.70
2018-06-18T16:29:05.913Z,76.00
2018-06-18T16:31:34.074Z,76.00
2018-06-18T16:34:02.248Z,74.30
2018-06-18T16:36:30.522Z,73.90
2018-06-18T16:38:58.685Z,72.20
2018-06-18T16:41:26.988Z,72.30
2018-06-18T16:43:55.213Z,72.70
2018-06-18T16:46:23.475Z,73.40
2018-06-18T16:48:51.670Z,73.90
2018-06-18T16:51:19.887Z,74.20
2018-06-18T16:53:48.154Z,73.30
2018-06-18T16:56:16.386Z,73.50
2018-06-18T16:58:44.633Z,73.80
2018-06-18T17:01:12.839Z,74.60
2018-06-18T17:03:41.063Z,74.30
2018-06-18T17:06:09.293Z,75.30
2018-06-18T17:08:37.452Z,75.50
2018-06-18T17:11:05.699Z,75.80
2018-06-18T17:13:33.814Z,76.70
2018-06-18T17:16:02.280Z,74.90
2018-06-18T17:18:30.421Z,75.80
2018-06-18T17:20:58.622Z,76.60
2018-06-18T17:23:26.834Z,76.40
2018-06-18T17:25:55.077Z,76.40
2018-06-18T17:28:23.337Z,77.30
2018-06-18T17:30:51.614Z,77.40
2018-06-18T17:33:20.237Z,77.70
2018-06-18T17:35:48.423Z,78.30
2018-06-18T17:38:16.565Z,78.30
2018-06-18T17:40:44.755Z,77.40
2018-06-18T17:43:13.040Z,79.10
2018-06-18T17:45:42.331Z,79.70
2018-06-18T17:48:10.739Z,79.80
2018-06-18T17:50:38.949Z,81.20
2018-06-18T17:53:07.224Z,81.60
2018-06-18T17:55:35.434Z,82.40
2018-06-18T17:58:03.777Z,81.00
2018-06-18T18:00:31.966Z,83.30
2018-06-18T18:03:00.156Z,81.80
2018-06-18T18:05:28.286Z,83.50
2018-06-18T18:10:24.288Z,83.90
2018-06-18T18:12:52.435Z,84.40
2018-06-18T18:15:20.605Z,84.20
2018-06-18T18:17:48.863Z,83.80
2018-06-18T18:20:17.059Z,83.50
2018-06-18T18:22:45.262Z,85.20
2018-06-18T18:25:13.538Z,84.30
2018-06-18T18:27:41.729Z,85.50
2018-06-18T18:30:10.001Z,84.10
2018-06-18T18:32:38.342Z,84.70
2018-06-18T18:35:06.696Z,85.50
2018-06-18T18:37:34.924Z,86.20
2018-06-18T18:40:03.177Z,85.60
2018-06-18T18:42:31.482Z,85.20
2018-06-18T18:44:59.694Z,85.80
2018-06-18T18:47:28.019Z,86.70
2018-06-18T18:49:56.315Z,89.30
2018-06-18T18:52:24.633Z,89.60
2018-06-18T18:55:59.336Z,86.80
2018-06-18T18:58:49.317Z,90.00
2018-06-18T19:01:17.598Z,89.50
2018-06-18T19:03:47.068Z,87.40
2018-06-18T19:06:15.294Z,89.40
2018-06-18T19:08:43.493Z,88.10
2018-06-18T19:11:11.719Z,89.50
2018-06-18T19:13:39.953Z,90.30
2018-06-18T19:16:08.227Z,90.00
2018-06-18T19:18:36.749Z,90.20
2018-06-18T19:21:07.024Z,90.20
2018-06-18T19:23:35.097Z,91.20
2018-06-18T19:26:03.124Z,89.80
2018-06-18T19:28:31.245Z,89.60
2018-06-18T19:31:03.603Z,90.60
2018-06-18T19:33:37.461Z,91.70
2018-06-18T19:36:06.094Z,91.10
2018-06-18T19:38:34.308Z,93.20
2018-06-18T19:41:02.377Z,91.60
2018-06-18T19:43:30.449Z,92.00
2018-06-18T19:45:59.781Z,93.50
2018-06-18T19:48:33.482Z,93.80
2018-06-18T19:51:01.561Z,95.30
2018-06-18T19:53:29.624Z,95.60
2018-06-18T19:55:57.724Z,94.30
2018-06-18T19:58:25.814Z,96.10
2018-06-18T20:00:55.064Z,94.60
2018-06-18T20:03:23.172Z,95.30
2018-06-18T20:05:51.883Z,95.30
2018-06-18T20:08:22.011Z,96.40
2018-06-18T20:10:50.092Z,96.50
2018-06-18T20:13:18.189Z,93.80
2018-06-18T20:15:46.287Z,93.40
2018-06-18T20:18:14.337Z,97.70
2018-06-18T20:20:42.453Z,97.50
2018-06-18T20:23:11.642Z,95.70
2018-06-18T20:25:42.434Z,98.50
2018-06-18T20:28:10.509Z,94.60
2018-06-18T20:30:38.686Z,95.90
2018-06-18T20:33:08.493Z,99.00
2018-06-18T20:35:37.890Z,99.20
2018-06-18T20:38:06.116Z,98.60
2018-06-18T20:40:34.319Z,99.30
2018-06-18T20:43:02.589Z,98.50
2018-06-18T20:45:30.863Z,98.70
2018-06-18T20:47:59.116Z,99.90
2018-06-18T20:50:27.425Z,99.30
2018-06-18T20:52:55.741Z,98.10
2018-06-18T20:55:24.125Z,99.90
2018-06-18T20:57:52.557Z,99.90
2018-06-18T21:00:20.802Z,99.90
2018-06-18T21:02:48.985Z,99.90
2018-06-18T21:05:17.286Z,99.90
2018-06-18T21:07:45.668Z,98.70
2018-06-18T21:10:13.983Z,99.90
2018-06-18T21:12:42.187Z,99.90
2018-06-18T21:15:10.361Z,99.90
2018-06-18T21:17:38.890Z,99.90
2018-06-18T21:20:15.233Z,99.90
2018-06-18T21:22:43.609Z,99.90
2018-06-18T21:25:11.817Z,99.90
2018-06-18T21:27:39.983Z,99.90
2018-06-18T21:30:08.417Z,99.90
2018-06-18T21:32:36.654Z,99.90
2018-06-18T21:35:04.957Z,99.90
2018-06-18T21:37:33.128Z,99.90
2018-06-18T21:40:01.482Z,99.90
2018-06-18T21:42:29.705Z,99.90
2018-06-18T21:45:15.669Z,99.90
2018-06-18T21:47:43.881Z,99.90
2018-06-18T21:50:12.166Z,99.90
2018-06-18T21:52:40.611Z,99.90
2018-06-18T21:55:09.896Z,99.90
2018-06-18T21:57:38.230Z,99.90
2018-06-18T22:00:09.927Z,99.90
2018-06-18T22:02:38.161Z,99.90
2018-06-18T22:05:06.489Z,99.90
2018-06-18T22:07:34.767Z,99.90
2018-06-18T22:10:02.986Z,99.90
2018-06-18T22:12:31.304Z,99.90
2018-06-18T22:14:59.636Z,99.90
2018-06-18T22:17:27.826Z,99.90
2018-06-18T22:19:56.051Z,99.90
2018-06-18T22:22:24.414Z,99.90
2018-06-18T22:24:52.680Z,99.90
2018-06-18T22:27:20.905Z,99.90
2018-06-18T22:29:49.166Z,99.90
2018-06-18T22:32:17.417Z,99.90
2018-06-18T22:34:45.633Z,99.90
2018-06-18T22:37:13.846Z,99.90
2018-06-18T22:39:42.134Z,99.90
2018-06-18T22:42:10.478Z,99.90
2018-06-18T22:44:38.963Z,99.90
2018-06-18T22:47:07.293Z,99.90
2018-06-18T22:49:35.518Z,99.90
2018-06-18T22:52:03.754Z,99.90
2018-06-18T22:54:31.976Z,99.90
2018-06-18T22:57:00.194Z,99.90
2018-06-18T22:59:28.390Z,99.90
2018-06-18T23:01:56.989Z,99.90
2018-06-18T23:04:25.246Z,99.90
2018-06-18T23:06:53.421Z,99.90
2018-06-18T23:09:21.682Z,99.90
2018-06-18T23:11:49.894Z,99.90
2018-06-18T23:14:20.239Z,99.90
2018-06-18T23:16:48.455Z,99.90
2018-06-18T23:19:16.741Z,99.90
2018-06-18T23:21:44.946Z,99.90
2018-06-18T23:24:13.215Z,99.90
2018-06-18T23:26:41.470Z,99.90
2018-06-18T23:29:10.825Z,99.90
2018-06-18T23:31:39.031Z,99.90
2018-06-18T23:34:07.246Z,99.90
2018-06-18T23:36:35.429Z,99.90
2018-06-18T23:39:04.168Z,99.90
2018-06-18T23:41:32.904Z,99.90
2018-06-18T23:44:01.194Z,99.90
2018-06-18T23:46:29.786Z,99.90
2018-06-18T23:48:58.064Z,99.90
2018-06-18T23:51:26.350Z,99.90
2018-06-18T23:53:54.598Z,99.90
2018-06-18T23:56:22.780Z,99.90
2018-06-18T23:58:51.008Z,99.90
